sensor_id;sensor_type;location;lat;lon;timestamp;pressure;altitude;pressure_sealevel;temperature;humidity
60832;BME280;46665;51.558;-0.448;2023-08-01T00:02:14;99603.44;;;13.57;100.00
60832;BME280;46665;51.558;-0.448;2023-08-01T00:04:39;99597.97;;;13.57;100.00
60832;BME280;46665;51.558;-0.448;2023-08-01T00:07:04;99600.72;;;13.57;100.00
60832;BME280;46665;51.558;-0.448;2023-08-01T00:09:30;99600.72;;;13.57;100.00
60832;BME280;46665;51.558;-0.448;2023-08-01T00:11:55;99601.03;;;13.56;100.00
60832;BME280;46665;51.558;-0.448;2023-08-01T00:14:21;99586.88;;;13.54;100.00
60832;BME280;46665;51.558;-0.448;2023-08-01T00:16:49;99603.28;;;13.54;100.00
60832;BME280;46665;51.558;-0.448;2023-08-01T00:19:15;99597.50;;;13.55;100.00
60832;BME280;46665;51.558;-0.448;2023-08-01T00:21:40;99599.25;;;13.51;100.00
60832;BME280;46665;51.558;-0.448;2023-08-01T00:24:06;99598.31;;;13.47;100.00
60832;BME280;46665;51.558;-0.448;2023-08-01T00:26:33;99595.91;;;13.46;100.00
60832;BME280;46665;51.558;-0.448;2023-08-01T00:28:58;99594.94;;;13.41;100.00
60832;BME280;46665;51.558;-0.448;2023-08-01T00:31:24;99593.47;;;13.44;100.00
60832;BME280;46665;51.558;-0.448;2023-08-01T00:33:49;99587.09;;;13.40;100.00
60832;BME280;46665;51.558;-0.448;2023-08-01T00:36:15;99581.63;;;13.40;100.00
60832;BME280;46665;51.558;-0.448;2023-08-01T00:38:40;99587.25;;;13.35;100.00
60832;BME280;46665;51.558;-0.448;2023-08-01T00:41:10;99590.31;;;13.33;100.00
60832;BME280;46665;51.558;-0.448;2023-08-01T00:43:36;99595.78;;;13.33;100.00
60832;BME280;46665;51.558;-0.448;2023-08-01T00:46:04;99596.25;;;13.27;100.00
60832;BME280;46665;51.558;-0.448;2023-08-01T00:48:30;99590.47;;;13.28;100.00
60832;BME280;46665;51.558;-0.448;2023-08-01T00:50:57;99589.16;;;13.26;100.00
60832;BME280;46665;51.558;-0.448;2023-08-01T00:53:24;99591.41;;;13.23;100.00
60832;BME280;46665;51.558;-0.448;2023-08-01T00:55:52;99597.69;;;13.24;100.00
60832;BME280;46665;51.558;-0.448;2023-08-01T00:58:18;99594.16;;;13.23;100.00
60832;BME280;46665;51.558;-0.448;2023-08-01T01:00:45;99598.50;;;13.25;100.00
60832;BME280;46665;51.558;-0.448;2023-08-01T01:03:11;99596.41;;;13.21;100.00
60832;BME280;46665;51.558;-0.448;2023-08-01T01:05:39;99593.22;;;13.19;100.00
60832;BME280;46665;51.558;-0.448;2023-08-01T01:08:06;99593.66;;;13.21;100.00
60832;BME280;46665;51.558;-0.448;2023-08-01T01:10:32;99604.13;;;13.19;100.00
60832;BME280;46665;51.558;-0.448;2023-08-01T01:12:57;99596.75;;;13.20;100.00
60832;BME280;46665;51.558;-0.448;2023-08-01T01:15:23;99596.91;;;13.15;100.00
60832;BME280;46665;51.558;-0.448;2023-08-01T01:17:48;99596.72;;;13.11;100.00
60832;BME280;46665;51.558;-0.448;2023-08-01T01:20:14;99585.00;;;13.11;100.00
60832;BME280;46665;51.558;-0.448;2023-08-01T01:22:40;99592.41;;;13.10;100.00
60832;BME280;46665;51.558;-0.448;2023-08-01T01:25:07;99587.59;;;13.07;100.00
60832;BME280;46665;51.558;-0.448;2023-08-01T01:27:34;99589.19;;;13.08;100.00
60832;BME280;46665;51.558;-0.448;2023-08-01T01:30:01;99581.78;;;13.09;100.00
60832;BME280;46665;51.558;-0.448;2023-08-01T01:32:27;99592.72;;;13.09;100.00
60832;BME280;46665;51.558;-0.448;2023-08-01T01:34:53;99594.47;;;13.13;100.00
60832;BME280;46665;51.558;-0.448;2023-08-01T01:37:18;99593.22;;;13.19;100.00
60832;BME280;46665;51.558;-0.448;2023-08-01T01:39:44;99601.22;;;13.25;100.00
60832;BME280;46665;51.558;-0.448;2023-08-01T01:42:09;99603.00;;;13.29;100.00
60832;BME280;46665;51.558;-0.448;2023-08-01T01:44:35;99602.03;;;13.34;100.00
60832;BME280;46665;51.558;-0.448;2023-08-01T01:47:00;99604.75;;;13.34;100.00
60832;BME280;46665;51.558;-0.448;2023-08-01T01:49:26;99608.78;;;13.36;100.00
60832;BME280;46665;51.558;-0.448;2023-08-01T01:51:51;99604.44;;;13.35;100.00
60832;BME280;46665;51.558;-0.448;2023-08-01T01:54:16;99607.81;;;13.41;100.00
60832;BME280;46665;51.558;-0.448;2023-08-01T01:56:42;99609.09;;;13.43;100.00
60832;BME280;46665;51.558;-0.448;2023-08-01T01:59:07;99605.56;;;13.43;100.00
60832;BME280;46665;51.558;-0.448;2023-08-01T02:01:33;99608.78;;;13.45;100.00
60832;BME280;46665;51.558;-0.448;2023-08-01T02:03:58;99600.41;;;13.50;100.00
60832;BME280;46665;51.558;-0.448;2023-08-01T02:06:23;99595.72;;;13.51;100.00
60832;BME280;46665;51.558;-0.448;2023-08-01T02:08:49;99595.41;;;13.52;100.00
60832;BME280;46665;51.558;-0.448;2023-08-01T02:11:14;99604.06;;;13.54;100.00
60832;BME280;46665;51.558;-0.448;2023-08-01T02:13:39;99599.25;;;13.51;100.00
60832;BME280;46665;51.558;-0.448;2023-08-01T02:16:05;99602.47;;;13.53;100.00
60832;BME280;46665;51.558;-0.448;2023-08-01T02:18:30;99607.94;;;13.53;100.00
60832;BME280;46665;51.558;-0.448;2023-08-01T02:20:55;99605.69;;;13.55;100.00
60832;BME280;46665;51.558;-0.448;2023-08-01T02:23:21;99611.63;;;13.57;100.00
60832;BME280;46665;51.558;-0.448;2023-08-01T02:25:46;99602.78;;;13.60;100.00
60832;BME280;46665;51.558;-0.448;2023-08-01T02:28:12;99601.16;;;13.59;100.00
60832;BME280;46665;51.558;-0.448;2023-08-01T02:30:38;99606.97;;;13.58;100.00
60832;BME280;46665;51.558;-0.448;2023-08-01T02:33:03;99594.09;;;13.58;100.00
60832;BME280;46665;51.558;-0.448;2023-08-01T02:35:29;99594.22;;;13.62;100.00
60832;BME280;46665;51.558;-0.448;2023-08-01T02:37:55;99584.13;;;13.62;100.00
60832;BME280;46665;51.558;-0.448;2023-08-01T02:40:21;99589.72;;;13.66;100.00
60832;BME280;46665;51.558;-0.448;2023-08-01T02:42:46;99591.31;;;13.67;100.00
60832;BME280;46665;51.558;-0.448;2023-08-01T02:45:12;99592.47;;;13.66;100.00
60832;BME280;46665;51.558;-0.448;2023-08-01T02:47:37;99592.78;;;13.64;100.00
60832;BME280;46665;51.558;-0.448;2023-08-01T02:50:03;99590.03;;;13.64;100.00
60832;BME280;46665;51.558;-0.448;2023-08-01T02:52:29;99589.78;;;13.57;100.00
60832;BME280;46665;51.558;-0.448;2023-08-01T02:54:55;99598.59;;;13.54;100.00
60832;BME280;46665;51.558;-0.448;2023-08-01T02:57:20;99604.41;;;13.53;100.00
60832;BME280;46665;51.558;-0.448;2023-08-01T02:59:46;99606.97;;;13.49;100.00
60832;BME280;46665;51.558;-0.448;2023-08-01T03:02:12;99604.91;;;13.46;100.00
60832;BME280;46665;51.558;-0.448;2023-08-01T03:04:37;99603.13;;;13.41;100.00
60832;BME280;46665;51.558;-0.448;2023-08-01T03:07:03;99607.00;;;13.40;100.00
60832;BME280;46665;51.558;-0.448;2023-08-01T03:09:28;99602.50;;;13.36;100.00
60832;BME280;46665;51.558;-0.448;2023-08-01T03:11:54;99600.91;;;13.35;100.00
60832;BME280;46665;51.558;-0.448;2023-08-01T03:14:20;99604.94;;;13.29;100.00
60832;BME280;46665;51.558;-0.448;2023-08-01T03:16:45;99614.28;;;13.28;100.00
60832;BME280;46665;51.558;-0.448;2023-08-01T03:19:10;99607.00;;;13.23;100.00
60832;BME280;46665;51.558;-0.448;2023-08-01T03:21:36;99606.53;;;13.21;100.00
60832;BME280;46665;51.558;-0.448;2023-08-01T03:24:03;99596.09;;;13.14;100.00
60832;BME280;46665;51.558;-0.448;2023-08-01T03:26:28;99592.91;;;13.12;100.00
60832;BME280;46665;51.558;-0.448;2023-08-01T03:28:55;99595.00;;;13.07;100.00
60832;BME280;46665;51.558;-0.448;2023-08-01T03:31:22;99593.72;;;13.04;100.00
60832;BME280;46665;51.558;-0.448;2023-08-01T03:33:47;99580.06;;;13.04;100.00
60832;BME280;46665;51.558;-0.448;2023-08-01T03:36:13;99575.22;;;13.01;100.00
60832;BME280;46665;51.558;-0.448;2023-08-01T03:38:38;99584.06;;;12.98;100.00
60832;BME280;46665;51.558;-0.448;2023-08-01T03:41:04;99583.75;;;12.99;100.00
60832;BME280;46665;51.558;-0.448;2023-08-01T03:43:30;99590.66;;;12.97;100.00
60832;BME280;46665;51.558;-0.448;2023-08-01T03:45:55;99580.06;;;12.95;100.00
60832;BME280;46665;51.558;-0.448;2023-08-01T03:48:20;99577.50;;;12.90;100.00
60832;BME280;46665;51.558;-0.448;2023-08-01T03:50:46;99583.28;;;12.89;100.00
60832;BME280;46665;51.558;-0.448;2023-08-01T03:53:11;99577.81;;;12.89;100.00
60832;BME280;46665;51.558;-0.448;2023-08-01T03:55:37;99576.06;;;12.84;100.00
60832;BME280;46665;51.558;-0.448;2023-08-01T03:58:02;99568.97;;;12.83;100.00
60832;BME280;46665;51.558;-0.448;2023-08-01T04:00:27;99575.09;;;12.80;100.00
60832;BME280;46665;51.558;-0.448;2023-08-01T04:02:58;99573.66;;;12.74;100.00
60832;BME280;46665;51.558;-0.448;2023-08-01T04:05:23;99578.78;;;12.75;100.00
60832;BME280;46665;51.558;-0.448;2023-08-01T04:07:49;99585.38;;;12.74;100.00
60832;BME280;46665;51.558;-0.448;2023-08-01T04:10:15;99582.00;;;12.69;100.00
60832;BME280;46665;51.558;-0.448;2023-08-01T04:12:40;99580.56;;;12.71;100.00
60832;BME280;46665;51.558;-0.448;2023-08-01T04:15:08;99591.13;;;12.73;100.00
60832;BME280;46665;51.558;-0.448;2023-08-01T04:17:33;99600.78;;;12.70;100.00
60832;BME280;46665;51.558;-0.448;2023-08-01T04:19:58;99581.50;;;12.67;100.00
60832;BME280;46665;51.558;-0.448;2023-08-01T04:22:24;99587.13;;;12.70;100.00
60832;BME280;46665;51.558;-0.448;2023-08-01T04:24:49;99589.84;;;12.70;100.00
60832;BME280;46665;51.558;-0.448;2023-08-01T04:27:16;99589.06;;;12.70;100.00
60832;BME280;46665;51.558;-0.448;2023-08-01T04:29:42;99593.06;;;12.72;100.00
60832;BME280;46665;51.558;-0.448;2023-08-01T04:32:07;99592.09;;;12.68;100.00
60832;BME280;46665;51.558;-0.448;2023-08-01T04:34:33;99591.28;;;12.68;100.00
60832;BME280;46665;51.558;-0.448;2023-08-01T04:36:58;99595.97;;;12.67;100.00
60832;BME280;46665;51.558;-0.448;2023-08-01T04:39:24;99589.53;;;12.63;100.00
60832;BME280;46665;51.558;-0.448;2023-08-01T04:41:49;99595.16;;;12.67;100.00
60832;BME280;46665;51.558;-0.448;2023-08-01T04:44:15;99595.81;;;12.64;100.00
60832;BME280;46665;51.558;-0.448;2023-08-01T04:46:41;99600.94;;;12.65;100.00
60832;BME280;46665;51.558;-0.448;2023-08-01T04:49:06;99605.09;;;12.63;100.00
60832;BME280;46665;51.558;-0.448;2023-08-01T04:51:31;99599.16;;;12.61;100.00
60832;BME280;46665;51.558;-0.448;2023-08-01T04:53:57;99595.97;;;12.58;100.00
60832;BME280;46665;51.558;-0.448;2023-08-01T04:56:22;99603.81;;;12.60;100.00
60832;BME280;46665;51.558;-0.448;2023-08-01T04:58:48;99612.00;;;12.60;100.00
60832;BME280;46665;51.558;-0.448;2023-08-01T05:01:13;99610.72;;;12.57;100.00
60832;BME280;46665;51.558;-0.448;2023-08-01T05:03:38;99611.50;;;12.58;100.00
60832;BME280;46665;51.558;-0.448;2023-08-01T05:06:04;99615.06;;;12.58;100.00
60832;BME280;46665;51.558;-0.448;2023-08-01T05:08:29;99611.06;;;12.56;100.00
60832;BME280;46665;51.558;-0.448;2023-08-01T05:10:55;99617.63;;;12.55;100.00
60832;BME280;46665;51.558;-0.448;2023-08-01T05:13:20;99616.50;;;12.56;100.00
60832;BME280;46665;51.558;-0.448;2023-08-01T05:15:46;99624.53;;;12.61;100.00
60832;BME280;46665;51.558;-0.448;2023-08-01T05:18:17;99622.28;;;12.63;100.00
60832;BME280;46665;51.558;-0.448;2023-08-01T05:20:43;99625.19;;;12.67;100.00
60832;BME280;46665;51.558;-0.448;2023-08-01T05:23:09;99627.56;;;12.68;100.00
60832;BME280;46665;51.558;-0.448;2023-08-01T05:25:34;99623.59;;;12.74;100.00
60832;BME280;46665;51.558;-0.448;2023-08-01T05:27:59;99630.16;;;12.82;100.00
60832;BME280;46665;51.558;-0.448;2023-08-01T05:30:25;99631.75;;;12.83;100.00
60832;BME280;46665;51.558;-0.448;2023-08-01T05:32:50;99623.75;;;12.87;100.00
60832;BME280;46665;51.558;-0.448;2023-08-01T05:35:16;99628.06;;;12.88;100.00
60832;BME280;46665;51.558;-0.448;2023-08-01T05:37:41;99632.88;;;12.91;100.00
60832;BME280;46665;51.558;-0.448;2023-08-01T05:40:07;99633.22;;;12.89;100.00
60832;BME280;46665;51.558;-0.448;2023-08-01T05:42:33;99633.53;;;12.88;100.00
60832;BME280;46665;51.558;-0.448;2023-08-01T05:44:58;99636.75;;;12.90;100.00
60832;BME280;46665;51.558;-0.448;2023-08-01T05:47:24;99644.94;;;12.90;100.00
60832;BME280;46665;51.558;-0.448;2023-08-01T05:49:49;99639.50;;;12.90;100.00
60832;BME280;46665;51.558;-0.448;2023-08-01T05:52:14;99633.72;;;12.91;100.00
60832;BME280;46665;51.558;-0.448;2023-08-01T05:54:40;99636.75;;;12.98;100.00
60832;BME280;46665;51.558;-0.448;2023-08-01T05:57:06;99640.13;;;13.04;100.00
60832;BME280;46665;51.558;-0.448;2023-08-01T05:59:32;99627.91;;;13.10;100.00
60832;BME280;46665;51.558;-0.448;2023-08-01T06:01:57;99640.75;;;13.18;100.00
60832;BME280;46665;51.558;-0.448;2023-08-01T06:04:23;99643.66;;;13.22;100.00
60832;BME280;46665;51.558;-0.448;2023-08-01T06:06:48;99649.13;;;13.31;100.00
60832;BME280;46665;51.558;-0.448;2023-08-01T06:09:14;99644.63;;;13.35;100.00
60832;BME280;46665;51.558;-0.448;2023-08-01T06:11:39;99651.22;;;13.42;100.00
60832;BME280;46665;51.558;-0.448;2023-08-01T06:14:05;99655.53;;;13.52;100.00
60832;BME280;46665;51.558;-0.448;2023-08-01T06:16:30;99655.81;;;13.59;100.00
60832;BME280;46665;51.558;-0.448;2023-08-01T06:18:55;99658.06;;;13.66;100.00
60832;BME280;46665;51.558;-0.448;2023-08-01T06:21:21;99665.78;;;13.73;100.00
60832;BME280;46665;51.558;-0.448;2023-08-01T06:23:47;99665.59;;;13.78;100.00
60832;BME280;46665;51.558;-0.448;2023-08-01T06:26:12;99659.97;;;13.83;100.00
60832;BME280;46665;51.558;-0.448;2023-08-01T06:28:40;99658.16;;;13.87;100.00
60832;BME280;46665;51.558;-0.448;2023-08-01T06:31:06;99674.88;;;13.94;100.00
60832;BME280;46665;51.558;-0.448;2023-08-01T06:33:31;99671.97;;;13.99;100.00
60832;BME280;46665;51.558;-0.448;2023-08-01T06:35:56;99679.97;;;14.13;100.00
60832;BME280;46665;51.558;-0.448;2023-08-01T06:38:22;99674.13;;;14.23;100.00
60832;BME280;46665;51.558;-0.448;2023-08-01T06:40:47;99674.41;;;14.30;100.00
60832;BME280;46665;51.558;-0.448;2023-08-01T06:43:12;99680.97;;;14.38;100.00
60832;BME280;46665;51.558;-0.448;2023-08-01T06:45:38;99684.50;;;14.39;100.00
60832;BME280;46665;51.558;-0.448;2023-08-01T06:48:03;99687.56;;;14.37;100.00
60832;BME280;46665;51.558;-0.448;2023-08-01T06:50:29;99686.25;;;14.43;100.00
60832;BME280;46665;51.558;-0.448;2023-08-01T06:52:54;99691.19;;;14.50;100.00
60832;BME280;46665;51.558;-0.448;2023-08-01T06:55:20;99696.19;;;14.57;100.00
60832;BME280;46665;51.558;-0.448;2023-08-01T06:57:45;99685.91;;;14.54;100.00
60832;BME280;46665;51.558;-0.448;2023-08-01T07:00:11;99691.69;;;14.52;100.00
60832;BME280;46665;51.558;-0.448;2023-08-01T07:02:36;99690.88;;;14.51;100.00
60832;BME280;46665;51.558;-0.448;2023-08-01T07:05:02;99697.94;;;14.52;100.00
60832;BME280;46665;51.558;-0.448;2023-08-01T07:07:28;99695.41;;;14.56;100.00
60832;BME280;46665;51.558;-0.448;2023-08-01T07:09:53;99700.06;;;14.56;100.00
60832;BME280;46665;51.558;-0.448;2023-08-01T07:12:18;99695.72;;;14.55;100.00
60832;BME280;46665;51.558;-0.448;2023-08-01T07:14:44;99686.84;;;14.58;100.00
60832;BME280;46665;51.558;-0.448;2023-08-01T07:17:09;99688.72;;;14.66;100.00
60832;BME280;46665;51.558;-0.448;2023-08-01T07:19:34;99700.22;;;14.80;100.00
60832;BME280;46665;51.558;-0.448;2023-08-01T07:22:00;99687.88;;;14.95;100.00
60832;BME280;46665;51.558;-0.448;2023-08-01T07:24:25;99683.09;;;14.92;100.00
60832;BME280;46665;51.558;-0.448;2023-08-01T07:26:50;99695.78;;;14.97;100.00
60832;BME280;46665;51.558;-0.448;2023-08-01T07:29:16;99688.97;;;15.03;100.00
60832;BME280;46665;51.558;-0.448;2023-08-01T07:31:41;99695.84;;;15.09;100.00
60832;BME280;46665;51.558;-0.448;2023-08-01T07:34:08;99690.81;;;15.11;100.00
60832;BME280;46665;51.558;-0.448;2023-08-01T07:36:33;99692.09;;;15.13;100.00
60832;BME280;46665;51.558;-0.448;2023-08-01T07:38:59;99687.88;;;15.16;100.00
60832;BME280;46665;51.558;-0.448;2023-08-01T07:41:24;99692.03;;;15.22;100.00
60832;BME280;46665;51.558;-0.448;2023-08-01T07:43:49;99700.19;;;15.31;100.00
60832;BME280;46665;51.558;-0.448;2023-08-01T07:46:15;99699.16;;;15.35;100.00
60832;BME280;46665;51.558;-0.448;2023-08-01T07:48:40;99706.50;;;15.44;100.00
60832;BME280;46665;51.558;-0.448;2023-08-01T07:51:06;99709.53;;;15.51;100.00
60832;BME280;46665;51.558;-0.448;2023-08-01T07:53:33;99696.97;;;15.50;100.00
60832;BME280;46665;51.558;-0.448;2023-08-01T07:55:59;99701.56;;;15.58;100.00
60832;BME280;46665;51.558;-0.448;2023-08-01T07:58:27;99703.50;;;15.57;100.00
60832;BME280;46665;51.558;-0.448;2023-08-01T08:00:52;99704.28;;;15.58;100.00
60832;BME280;46665;51.558;-0.448;2023-08-01T08:03:18;99724.19;;;15.67;100.00
60832;BME280;46665;51.558;-0.448;2023-08-01T08:05:44;99714.50;;;15.70;100.00
60832;BME280;46665;51.558;-0.448;2023-08-01T08:08:10;99712.72;;;15.74;100.00
60832;BME280;46665;51.558;-0.448;2023-08-01T08:10:35;99718.09;;;15.70;99.87
60832;BME280;46665;51.558;-0.448;2023-08-01T08:13:00;99711.38;;;15.80;100.00
60832;BME280;46665;51.558;-0.448;2023-08-01T08:15:26;99721.78;;;15.87;100.00
60832;BME280;46665;51.558;-0.448;2023-08-01T08:17:52;99721.00;;;15.98;100.00
60832;BME280;46665;51.558;-0.448;2023-08-01T08:20:17;99733.59;;;16.12;100.00
60832;BME280;46665;51.558;-0.448;2023-08-01T08:22:42;99728.91;;;16.12;98.13
60832;BME280;46665;51.558;-0.448;2023-08-01T08:25:08;99718.72;;;16.13;96.23
60832;BME280;46665;51.558;-0.448;2023-08-01T08:27:34;99726.56;;;16.23;96.74
60832;BME280;46665;51.558;-0.448;2023-08-01T08:29:59;99723.91;;;16.27;96.28
60832;BME280;46665;51.558;-0.448;2023-08-01T08:32:25;99729.88;;;16.29;96.20
60832;BME280;46665;51.558;-0.448;2023-08-01T08:34:50;99717.88;;;16.33;92.13
60832;BME280;46665;51.558;-0.448;2023-08-01T08:37:15;99723.59;;;16.28;90.21
60832;BME280;46665;51.558;-0.448;2023-08-01T08:39:44;99726.22;;;16.37;90.60
60832;BME280;46665;51.558;-0.448;2023-08-01T08:42:10;99720.81;;;16.40;89.73
60832;BME280;46665;51.558;-0.448;2023-08-01T08:44:42;99721.97;;;16.52;87.08
60832;BME280;46665;51.558;-0.448;2023-08-01T08:47:08;99719.22;;;16.39;89.49
60832;BME280;46665;51.558;-0.448;2023-08-01T08:49:39;99701.25;;;16.17;88.48
60832;BME280;46665;51.558;-0.448;2023-08-01T08:52:06;99710.16;;;16.14;87.58
60832;BME280;46665;51.558;-0.448;2023-08-01T08:54:32;99712.00;;;16.22;89.26
60832;BME280;46665;51.558;-0.448;2023-08-01T08:56:58;99715.69;;;16.39;90.85
60832;BME280;46665;51.558;-0.448;2023-08-01T08:59:25;99721.53;;;16.62;88.01
60832;BME280;46665;51.558;-0.448;2023-08-01T09:01:52;99723.69;;;16.81;88.03
60832;BME280;46665;51.558;-0.448;2023-08-01T09:04:17;99741.66;;;16.90;87.00
60832;BME280;46665;51.558;-0.448;2023-08-01T09:06:49;99730.44;;;16.83;85.91
60832;BME280;46665;51.558;-0.448;2023-08-01T09:09:15;99737.56;;;16.84;84.56
60832;BME280;46665;51.558;-0.448;2023-08-01T09:11:45;99740.06;;;16.77;84.76
60832;BME280;46665;51.558;-0.448;2023-08-01T09:14:10;99744.19;;;16.71;85.95
60832;BME280;46665;51.558;-0.448;2023-08-01T09:16:36;99738.91;;;16.66;84.00
60832;BME280;46665;51.558;-0.448;2023-08-01T09:19:01;99744.63;;;16.61;85.64
60832;BME280;46665;51.558;-0.448;2023-08-01T09:21:31;99741.53;;;16.62;83.00
60832;BME280;46665;51.558;-0.448;2023-08-01T09:24:17;99758.97;;;16.79;81.43
60832;BME280;46665;51.558;-0.448;2023-08-01T09:26:43;99740.66;;;16.83;81.69
60832;BME280;46665;51.558;-0.448;2023-08-01T09:29:09;99741.00;;;16.81;81.75
60832;BME280;46665;51.558;-0.448;2023-08-01T09:31:36;99745.44;;;16.74;81.35
60832;BME280;46665;51.558;-0.448;2023-08-01T09:34:03;99740.84;;;16.65;82.82
60832;BME280;46665;51.558;-0.448;2023-08-01T09:36:33;99746.94;;;16.59;83.36
60832;BME280;46665;51.558;-0.448;2023-08-01T09:39:03;99746.34;;;16.53;82.78
60832;BME280;46665;51.558;-0.448;2023-08-01T09:41:29;99746.69;;;16.52;83.33
60832;BME280;46665;51.558;-0.448;2023-08-01T09:43:56;99744.28;;;16.62;82.62
60832;BME280;46665;51.558;-0.448;2023-08-01T09:46:22;99750.13;;;16.73;82.56
60832;BME280;46665;51.558;-0.448;2023-08-01T09:48:47;99760.91;;;16.78;80.00
60832;BME280;46665;51.558;-0.448;2023-08-01T09:51:15;99749.59;;;16.80;80.71
60832;BME280;46665;51.558;-0.448;2023-08-01T09:53:53;99750.25;;;16.77;81.92
60832;BME280;46665;51.558;-0.448;2023-08-01T09:56:22;99752.31;;;16.80;82.40
60832;BME280;46665;51.558;-0.448;2023-08-01T09:58:48;99755.31;;;16.87;81.33
60832;BME280;46665;51.558;-0.448;2023-08-01T10:01:16;99773.38;;;16.88;82.96
60832;BME280;46665;51.558;-0.448;2023-08-01T10:03:45;99767.00;;;16.84;83.26
60832;BME280;46665;51.558;-0.448;2023-08-01T10:06:16;99781.38;;;16.81;82.39
60832;BME280;46665;51.558;-0.448;2023-08-01T10:08:42;99766.88;;;16.80;79.96
60832;BME280;46665;51.558;-0.448;2023-08-01T10:11:08;99778.66;;;16.81;82.06
60832;BME280;46665;51.558;-0.448;2023-08-01T10:13:35;99782.56;;;16.80;82.64
60832;BME280;46665;51.558;-0.448;2023-08-01T10:16:01;99763.97;;;16.77;81.63
60832;BME280;46665;51.558;-0.448;2023-08-01T10:18:28;99769.00;;;16.75;82.48
60832;BME280;46665;51.558;-0.448;2023-08-01T10:20:54;99763.41;;;16.71;83.10
60832;BME280;46665;51.558;-0.448;2023-08-01T10:23:20;99765.38;;;16.83;82.52
60832;BME280;46665;51.558;-0.448;2023-08-01T10:25:46;99759.41;;;17.05;82.87
60832;BME280;46665;51.558;-0.448;2023-08-01T10:28:12;99754.75;;;17.34;82.46
60832;BME280;46665;51.558;-0.448;2023-08-01T10:30:37;99763.09;;;17.50;78.61
60832;BME280;46665;51.558;-0.448;2023-08-01T10:33:03;99746.81;;;17.73;77.69
60832;BME280;46665;51.558;-0.448;2023-08-01T10:35:35;99751.63;;;18.04;78.27
60832;BME280;46665;51.558;-0.448;2023-08-01T10:40:38;99749.31;;;18.22;72.91
60832;BME280;46665;51.558;-0.448;2023-08-01T10:43:04;99751.66;;;18.36;72.48
60832;BME280;46665;51.558;-0.448;2023-08-01T10:45:29;99748.19;;;18.23;71.42
60832;BME280;46665;51.558;-0.448;2023-08-01T10:48:06;99756.88;;;18.09;72.53
60832;BME280;46665;51.558;-0.448;2023-08-01T10:50:32;99762.97;;;18.03;74.89
60832;BME280;46665;51.558;-0.448;2023-08-01T10:53:06;99767.16;;;17.96;76.52
60832;BME280;46665;51.558;-0.448;2023-08-01T10:55:40;99761.63;;;17.96;76.82
60832;BME280;46665;51.558;-0.448;2023-08-01T10:58:06;99767.59;;;17.98;75.40
60832;BME280;46665;51.558;-0.448;2023-08-01T11:00:31;99763.41;;;18.05;74.86
60832;BME280;46665;51.558;-0.448;2023-08-01T11:02:57;99755.34;;;18.12;75.04
60832;BME280;46665;51.558;-0.448;2023-08-01T11:05:22;99760.97;;;18.15;75.09
60832;BME280;46665;51.558;-0.448;2023-08-01T11:07:59;99753.69;;;18.23;74.11
60832;BME280;46665;51.558;-0.448;2023-08-01T11:10:29;99762.75;;;18.24;74.30
60832;BME280;46665;51.558;-0.448;2023-08-01T11:12:56;99757.97;;;18.21;71.04
60832;BME280;46665;51.558;-0.448;2023-08-01T11:15:21;99759.53;;;18.22;71.04
60832;BME280;46665;51.558;-0.448;2023-08-01T11:17:51;99769.13;;;18.28;71.94
60832;BME280;46665;51.558;-0.448;2023-08-01T11:20:18;99772.16;;;18.23;72.43
60832;BME280;46665;51.558;-0.448;2023-08-01T11:22:58;99788.84;;;18.30;69.04
60832;BME280;46665;51.558;-0.448;2023-08-01T11:25:37;99777.06;;;18.45;68.64
60832;BME280;46665;51.558;-0.448;2023-08-01T11:28:08;99774.41;;;18.49;70.07
60832;BME280;46665;51.558;-0.448;2023-08-01T11:30:33;99774.81;;;18.51;68.40
60832;BME280;46665;51.558;-0.448;2023-08-01T11:33:00;99766.56;;;18.51;69.16
60832;BME280;46665;51.558;-0.448;2023-08-01T11:35:27;99775.56;;;18.63;69.11
60832;BME280;46665;51.558;-0.448;2023-08-01T11:37:52;99779.56;;;18.66;64.21
60832;BME280;46665;51.558;-0.448;2023-08-01T11:40:18;99773.94;;;18.78;65.88
60832;BME280;46665;51.558;-0.448;2023-08-01T11:42:49;99774.56;;;18.88;64.40
60832;BME280;46665;51.558;-0.448;2023-08-01T11:45:16;99779.38;;;18.91;64.41
60832;BME280;46665;51.558;-0.448;2023-08-01T11:47:46;99769.13;;;18.91;64.43
60832;BME280;46665;51.558;-0.448;2023-08-01T11:50:11;99773.00;;;18.87;64.58
60832;BME280;46665;51.558;-0.448;2023-08-01T11:52:37;99770.41;;;18.78;64.45
60832;BME280;46665;51.558;-0.448;2023-08-01T11:55:02;99775.28;;;18.84;66.49
60832;BME280;46665;51.558;-0.448;2023-08-01T11:57:28;99766.91;;;18.97;64.05
60832;BME280;46665;51.558;-0.448;2023-08-01T11:59:55;99759.41;;;19.13;65.48
60832;BME280;46665;51.558;-0.448;2023-08-01T12:02:21;99754.16;;;19.08;64.02
60832;BME280;46665;51.558;-0.448;2023-08-01T12:04:47;99753.72;;;19.06;64.04
60832;BME280;46665;51.558;-0.448;2023-08-01T12:07:13;99758.78;;;19.04;64.36
60832;BME280;46665;51.558;-0.448;2023-08-01T12:09:40;99753.81;;;19.10;66.16
60832;BME280;46665;51.558;-0.448;2023-08-01T12:12:05;99770.16;;;19.18;62.96
60832;BME280;46665;51.558;-0.448;2023-08-01T12:14:31;99767.22;;;19.11;60.95
60832;BME280;46665;51.558;-0.448;2023-08-01T12:16:57;99776.09;;;19.20;61.64
60832;BME280;46665;51.558;-0.448;2023-08-01T12:19:22;99767.38;;;19.18;59.79
60832;BME280;46665;51.558;-0.448;2023-08-01T12:21:49;99760.06;;;19.26;61.99
60832;BME280;46665;51.558;-0.448;2023-08-01T12:24:15;99757.47;;;19.33;61.55
60832;BME280;46665;51.558;-0.448;2023-08-01T12:26:40;99756.09;;;19.43;63.01
60832;BME280;46665;51.558;-0.448;2023-08-01T12:29:06;99766.56;;;19.53;61.36
60832;BME280;46665;51.558;-0.448;2023-08-01T12:31:32;99751.69;;;19.58;61.19
60832;BME280;46665;51.558;-0.448;2023-08-01T12:33:58;99757.78;;;19.47;59.66
60832;BME280;46665;51.558;-0.448;2023-08-01T12:36:23;99759.88;;;19.54;62.74
60832;BME280;46665;51.558;-0.448;2023-08-01T12:38:49;99763.44;;;19.55;63.22
60832;BME280;46665;51.558;-0.448;2023-08-01T12:41:15;99764.88;;;19.48;60.87